Latest Weather Observations for Hartz Mountains

IDT60801

Issued at 9:31 pm EST Thursday 29 September 2016 (issued every 30 minutes, with the page automatically refreshed every 10 minutes)

About weather observations | Map of weather stations | Latest weather observations for TAS | Other Formats
Station Details ID: 094191 Name: HARTZ MOUNTAIN (KEOGHS PIMPLE) Lat: -43.20 Lon: 146.77 Height: 831.0 m
Data from the previous 72 hours. | See also: Recent months at Hartz Mountains
Date/Time
EST
Temp
°C
App
Temp
°C
Dew
Point
°C
Rel
Hum
%
Delta-T
°C
Wind Press
QNH
hPa
Press
MSL
hPa
Rain since
9am
mm
Dir  Spd
km/h
Gust
km/h
Spd
kts
Gust
kts
29/09:30pm 6.4 -3.6 6.3 99 0.0 ENE 48 72 26 39 - - 8.8
29/09:00pm 6.3 -3.3 6.2 99 0.0 ENE 46 80 25 43 - - 8.8
29/08:30pm 6.3 -4.5 6.2 99 0.0 ENE 52 80 28 43 - - 8.4
29/08:00pm 6.5 -3.4 6.4 99 0.0 ENE 48 76 26 41 - - 7.2
29/07:30pm 6.6 -2.9 6.5 99 0.0 ENE 46 69 25 37 - - 6.6
29/07:00pm 6.6 -3.3 6.5 99 0.0 ENE 48 74 26 40 - - 6.4
29/06:30pm 7.1 -2.3 7.0 99 0.0 ENE 46 67 25 36 - - 6.4
29/06:00pm 7.2 -1.8 7.1 99 0.0 ENE 44 69 24 37 - - 6.0
29/05:30pm 7.4 -1.0 7.3 99 0.0 ENE 41 69 22 37 - - 5.6
29/05:00pm 7.5 -0.5 7.4 99 0.0 ENE 39 67 21 36 - - 5.4
29/04:30pm 7.6 0.0 7.5 99 0.0 ENE 37 61 20 33 - - 5.0
29/04:00pm 7.6 0.0 7.5 99 0.0 ENE 37 63 20 34 - - 4.8
29/03:30pm 7.7 -1.2 7.6 99 0.0 ENE 44 76 24 41 - - 4.6
29/03:03pm 7.8 0.6 7.7 99 0.0 ENE 35 80 19 43 - - 4.6
29/03:00pm 7.8 0.2 7.7 99 0.0 ENE 37 59 20 32 - - 4.6
29/02:30pm 7.7 0.1 7.6 99 0.0 ENE 37 59 20 32 - - 3.8
29/02:00pm 7.8 -0.9 7.7 99 0.0 ENE 43 67 23 36 - - 2.0
29/01:30pm 7.9 -0.4 7.8 99 0.0 ENE 41 67 22 36 - - 1.6
29/01:00pm 8.0 0.9 7.9 99 0.0 ENE 35 57 19 31 - - 1.4
29/12:30pm 7.9 0.0 7.8 99 0.0 ENE 39 59 21 32 - - 0.8
29/12:04pm 7.9 1.3 7.8 99 0.0 ENE 32 52 17 28 - - 0.4
29/12:00pm 7.9 1.3 7.8 99 0.0 ENE 32 48 17 26 - - 0.4
29/11:30am 7.7 0.4 7.4 98 0.1 ENE 35 57 19 31 - - 0.2
29/11:00am 7.5 0.6 7.2 98 0.1 ENE 33 54 18 29 - - 0.0
29/10:47am 7.4 0.6 7.1 98 0.1 ENE 32 54 17 29 - - 0.0
29/10:30am 7.3 1.3 7.0 98 0.1 ENE 28 44 15 24 - - 0.0
29/10:11am 7.2 1.2 6.9 98 0.1 ENE 28 46 15 25 - - 0.0
29/10:00am 7.3 1.7 7.0 98 0.1 ENE 26 41 14 22 - - 0.0
29/09:30am 7.0 1.3 6.7 98 0.1 ENE 26 44 14 24 - - 0.0
29/09:00am 6.6 0.0 6.2 97 0.2 NE 30 48 16 26 - - 0.4
29/08:55am 6.6 0.4 6.2 97 0.2 ENE 28 48 15 26 - - 0.2
29/08:30am 6.4 0.1 5.8 96 0.3 ENE 28 41 15 22 - - 0.2
29/08:00am 6.2 -0.1 5.6 96 0.3 ENE 28 41 15 22 - - 0.2
29/07:30am 6.0 -0.4 5.1 94 0.4 ENE 28 37 15 20 - - 0.2
29/07:00am 5.6 -0.5 4.7 94 0.4 ENE 26 41 14 22 - - 0.2
29/06:30am 5.3 -0.5 4.4 94 0.4 ENE 24 37 13 20 - - 0.2
29/06:00am 5.0 -0.9 4.0 93 0.4 ENE 24 41 13 22 - - 0.2
29/05:30am 4.5 -1.5 3.5 93 0.4 NE 24 35 13 19 - - 0.2
29/05:00am 4.2 -1.1 3.2 93 0.4 NE 20 35 11 19 - - 0.2
29/04:30am 3.5 -2.3 2.5 93 0.4 NE 22 37 12 20 - - 0.2
29/04:00am 3.2 -2.2 2.3 94 0.4 NE 20 30 11 16 - - 0.2
29/03:30am 3.0 -1.5 2.3 95 0.3 ENE 15 20 8 11 - - 0.2
29/03:00am 2.9 -1.3 1.7 92 0.5 ENE 13 17 7 9 - - 0.2
29/02:30am 3.9 0.0 1.4 84 1.0 N 11 22 6 12 - - 0.2
29/02:00am 3.9 -1.0 2.1 88 0.8 NNE 17 28 9 15 - - 0.2
29/01:30am 3.9 0.0 3.3 96 0.3 NE 13 17 7 9 - - 0.2
29/01:00am 4.0 -0.6 3.6 97 0.2 NE 17 24 9 13 - - 0.2
29/12:30am 4.3 -0.6 3.9 97 0.2 NE 19 24 10 13 - - 0.2
29/12:00am 4.4 0.2 4.0 97 0.2 NE 15 20 8 11 - - 0.2
 
Date/Time
EST
Temp
°C
App
Temp
°C
Dew
Point
°C
Rel
Hum
%
Delta-T
°C
Wind Press
QNH
hPa
Press
MSL
hPa
Rain since
9am
mm
Dir  Spd
km/h
Gust
km/h
Spd
kts
Gust
kts
28/11:30pm 4.5 0.7 3.9 96 0.3 ENE 13 19 7 10 - - 0.2
28/11:00pm 4.7 0.5 4.0 95 0.3 NE 15 22 8 12 - - 0.2
28/10:30pm 5.2 0.8 4.5 95 0.3 NE 17 24 9 13 - - 0.2
28/10:00pm 5.2 1.1 4.5 95 0.3 NE 15 22 8 12 - - 0.2
28/09:30pm 5.1 1.4 4.4 95 0.3 ENE 13 19 7 10 - - 0.2
28/09:00pm 5.1 1.4 4.2 94 0.4 ENE 13 19 7 10 - - 0.2
28/08:30pm 5.0 0.9 4.1 94 0.4 ENE 15 22 8 12 - - 0.2
28/08:00pm 5.0 0.8 4.0 93 0.4 ENE 15 20 8 11 - - 0.2
28/07:30pm 5.0 0.4 3.8 92 0.5 ENE 17 24 9 13 - - 0.2
28/07:00pm 4.9 0.3 3.6 91 0.6 E 17 24 9 13 - - 0.2
28/06:30pm 5.1 0.4 3.3 88 0.8 E 17 26 9 14 - - 0.2
28/06:00pm 5.0 -0.1 2.9 86 0.9 E 19 28 10 15 - - 0.2
28/05:30pm 5.9 1.0 2.2 77 1.6 E 17 24 9 13 - - 0.2
28/05:00pm 6.5 0.7 2.2 74 1.9 E 22 32 12 17 - - 0.2
28/04:30pm 8.3 3.0 3.0 69 2.4 E 20 30 11 16 - - 0.2
28/04:00pm 8.6 3.5 2.8 67 2.6 E 19 30 10 16 - - 0.2
28/03:30pm 11.2 7.2 4.7 64 3.1 NE 15 24 8 13 - - 0.2
28/03:00pm 9.5 6.0 3.7 67 2.7 ENE 11 19 6 10 - - 0.2
28/02:30pm 9.7 5.7 3.0 63 3.0 NE 13 19 7 10 - - 0.2
28/02:00pm 11.0 6.5 2.3 55 3.9 N 15 28 8 15 - - 0.2
28/01:30pm 11.1 7.2 3.2 58 3.6 NNE 13 22 7 12 - - 0.0
28/01:00pm 9.4 6.0 3.8 68 2.6 NE 11 20 6 11 - - 0.0
28/12:30pm 11.0 7.9 3.8 61 3.4 NNE 9 17 5 9 - - 0.0
28/12:00pm 11.2 7.2 2.8 56 3.8 NW 13 22 7 12 - - 0.0
28/11:30am 7.7 4.2 3.6 75 1.8 W 11 17 6 9 - - 0.0
28/11:00am 6.4 2.2 1.9 73 1.9 W 13 17 7 9 - - 0.0
28/10:30am 7.5 2.9 3.6 76 1.8 NW 17 26 9 14 - - 0.0
28/10:00am 6.3 1.8 4.0 85 1.0 WNW 17 24 9 13 - - 0.0
28/09:30am 5.1 0.7 2.8 85 1.0 WNW 15 20 8 11 - - 0.0
28/09:00am 5.2 -0.2 2.6 83 1.1 WNW 20 28 11 15 - - 1.2
28/08:30am 4.6 -1.5 2.6 87 0.9 WNW 24 39 13 21 - - 1.2
28/08:00am 3.5 -0.9 2.5 93 0.4 W 15 22 8 12 - - 1.2
28/07:35am 2.7 -4.8 1.5 92 0.5 WNW 30 48 16 26 - - 1.2
28/07:30am 2.8 -5.0 1.6 92 0.5 WNW 32 48 17 26 - - 1.2
28/07:00am 2.7 -5.1 1.8 94 0.4 WNW 32 48 17 26 - - 1.2
28/06:50am 2.9 -4.1 2.0 94 0.4 W 28 46 15 25 - - 1.2
28/06:30am 2.7 -5.0 2.1 96 0.2 W 32 44 17 24 - - 1.2
28/06:00am 2.4 -5.4 2.0 97 0.2 W 32 44 17 24 - - 1.2
28/05:34am 2.4 -5.4 2.0 97 0.2 W 32 50 17 27 - - 1.2
28/05:30am 2.3 -5.7 1.9 97 0.2 W 33 48 18 26 - - 1.2
28/05:06am 2.3 -5.5 1.7 96 0.2 W 32 50 17 27 - - 1.2
28/05:00am 2.4 -5.6 1.8 96 0.2 W 33 44 18 24 - - 1.2
28/04:30am 2.7 -5.0 2.3 97 0.2 W 32 46 17 25 - - 1.2
28/04:00am 2.8 -4.1 2.5 98 0.1 WNW 28 44 15 24 - - 1.0
28/03:30am 3.2 -4.6 2.9 98 0.1 WNW 33 50 18 27 - - 1.0
28/03:00am 3.6 -2.8 3.3 98 0.1 W 26 44 14 24 - - 1.0
28/02:32am 4.0 -3.1 3.7 98 0.1 WNW 30 48 16 26 - - 0.6
28/02:30am 3.9 -2.8 3.6 98 0.1 WNW 28 43 15 23 - - 0.6
28/02:00am 3.7 -2.7 3.3 97 0.2 WNW 26 37 14 20 - - 0.6
28/01:30am 3.8 -2.6 3.4 97 0.2 WNW 26 33 14 18 - - 0.4
28/01:00am 3.7 -2.4 2.8 94 0.4 WNW 24 35 13 19 - - 0.4
28/12:30am 3.8 -2.4 2.3 90 0.6 WNW 24 32 13 17 - - 0.2
28/12:00am 4.2 -3.3 1.4 82 1.2 WNW 30 43 16 23 - - 0.2
 
Date/Time
EST
Temp
°C
App
Temp
°C
Dew
Point
°C
Rel
Hum
%
Delta-T
°C
Wind Press
QNH
hPa
Press
MSL
hPa
Rain since
9am
mm
Dir  Spd
km/h
Gust
km/h
Spd
kts
Gust
kts
27/11:30pm 4.2 -1.1 2.1 86 0.9 WNW 19 26 10 14 - - 0.2
27/11:00pm 3.9 -0.9 2.4 90 0.6 WNW 17 26 9 14 - - 0.2
27/10:30pm 4.4 -1.3 2.9 90 0.6 WNW 22 30 12 16 - - 0.2
27/10:00pm 4.6 -1.4 3.3 91 0.6 W 24 33 13 18 - - 0.2
27/09:30pm 4.8 -1.5 3.5 91 0.6 WNW 26 35 14 19 - - 0.2
27/09:00pm 5.0 -0.9 3.8 92 0.5 NW 24 33 13 18 - - 0.0
27/08:30pm 5.4 0.0 4.5 94 0.4 WNW 22 33 12 18 - - 0.0
27/08:00pm 5.3 2.0 4.3 93 0.4 NNE 11 17 6 9 - - 0.0
27/07:30pm 5.7 3.7 4.5 92 0.5 NNW 4 7 2 4 - - 0.0
27/07:00pm 6.3 1.4 5.3 93 0.5 WNW 20 32 11 17 - - 0.0
27/06:30pm 6.9 2.1 4.7 86 1.0 W 19 26 10 14 - - 0.0
27/06:00pm 7.9 5.0 4.5 79 1.6 W 9 19 5 10 - - 0.0
27/05:30pm 8.3 5.3 4.3 76 1.8 SE 9 13 5 7 - - 0.0
27/05:00pm 7.9 4.9 3.9 76 1.8 SSE 9 15 5 8 - - 0.0
27/04:30pm 10.1 6.9 2.9 61 3.3 E 9 13 5 7 - - 0.0
27/04:00pm 11.8 8.5 2.3 52 4.3 NW 9 17 5 9 - - 0.0
27/03:30pm 10.4 5.8 1.5 54 3.9 NW 15 20 8 11 - - 0.0
27/03:00pm 13.2 7.8 1.2 44 5.4 WNW 19 26 10 14 - - 0.0
27/02:30pm 14.8 10.4 4.8 51 4.9 W 17 26 9 14 - - 0.0
27/02:00pm 14.7 11.2 3.5 47 5.3 W 11 24 6 13 - - 0.0
27/01:30pm 13.7 9.1 3.5 50 4.8 WNW 17 26 9 14 - - 0.0
27/01:00pm 13.3 9.3 3.1 50 4.8 WNW 13 26 7 14 - - 0.0
27/12:30pm 12.0 7.6 2.5 52 4.3 W 15 24 8 13 - - 0.0
27/12:00pm 10.9 6.4 2.2 55 3.9 WSW 15 20 8 11 - - 0.0
27/11:30am 11.8 7.6 3.8 58 3.7 WNW 15 28 8 15 - - 0.0
27/11:00am 9.6 5.6 2.7 62 3.1 W 13 20 7 11 - - 0.0
27/10:30am 9.7 5.8 3.2 64 3.0 W 13 24 7 13 - - 0.0
27/10:00am 7.4 2.4 1.5 66 2.5 W 17 20 9 11 - - 0.0
27/09:30am 7.7 2.6 0.9 62 2.9 W 17 24 9 13 - - 0.0
27/09:00am 7.2 2.5 0.9 64 2.7 W 15 20 8 11 - - 0.0
27/08:30am 6.8 3.0 -0.6 59 3.0 WSW 9 13 5 7 - - 0.0
27/08:00am 5.6 0.7 -0.4 65 2.4 WNW 15 19 8 10 - - 0.0
27/07:30am 4.3 -0.5 -0.1 73 1.8 WNW 15 17 8 9 - - 0.0
27/07:00am 4.1 -0.4 -0.1 74 1.7 WNW 13 17 7 9 - - 0.0
27/06:30am 3.4 -1.8 0.3 80 1.2 W 17 20 9 11 - - 0.0
27/06:00am 2.7 -2.5 0.3 84 0.9 WSW 17 20 9 11 - - 0.0
27/05:30am 2.9 -1.5 0.6 85 0.9 W 13 17 7 9 - - 0.0
27/05:00am 3.0 -1.7 0.9 86 0.8 W 15 17 8 9 - - 0.0
27/04:30am 2.8 -1.5 0.7 86 0.8 W 13 13 7 7 - - 0.0
27/04:00am 2.8 -1.9 0.9 87 0.8 W 15 17 8 9 - - 0.0
27/03:30am 2.8 -1.9 0.9 87 0.8 W 15 19 8 10 - - 0.0
27/03:00am 2.8 -1.5 0.9 87 0.8 W 13 17 7 9 - - 0.0
27/02:30am 2.6 -1.4 0.7 87 0.8 WNW 11 11 6 6 - - 0.0
27/02:00am 3.1 -0.1 0.7 84 1.0 W 7 9 4 5 - - 0.0
27/01:30am 3.6 0.7 1.2 84 1.0 W 6 7 3 4 - - 0.0
27/01:00am 3.1 0.0 1.2 87 0.8 W 7 9 4 5 - - 0.0
27/12:30am 3.1 -0.4 1.5 89 0.7 WSW 9 13 5 7 - - 0.0
27/12:00am 3.1 -1.1 1.9 92 0.5 W 13 15 7 8 - - 0.0
 
Date/Time
EST
Temp
°C
App
Temp
°C
Dew
Point
°C
Rel
Hum
%
Delta-T
°C
Wind Press
QNH
hPa
Press
MSL
hPa
Rain since
9am
mm
Dir  Spd
km/h
Gust
km/h
Spd
kts
Gust
kts
26/11:30pm 3.3 -0.1 2.1 92 0.5 W 9 13 5 7 - - 0.0
26/11:00pm 3.4 -0.7 2.2 92 0.5 W 13 15 7 8 - - 0.0
26/10:30pm 3.4 1.0 2.1 91 0.5 SSW 4 9 2 5 - - 0.0
26/10:00pm 3.7 2.1 2.4 91 0.5 CALM 0 0 0 0 - - 0.0

Other Formats:

Comma delimited format used in spreadsheet applications
http://www.bom.gov.au/fwo/IDT60801/IDT60801.94977.axf

JavaScript Object Notation format (JSON) in row-major order
http://www.bom.gov.au/fwo/IDT60801/IDT60801.94977.json